createdAt,value
2019-01-26T00:01:33.246Z,1.30
2019-01-26T00:03:59.630Z,1.20
2019-01-26T00:06:25.961Z,1.03
2019-01-26T00:08:52.300Z,1.27
2019-01-26T00:11:18.679Z,1.27
2019-01-26T00:13:45.012Z,1.33
2019-01-26T00:16:11.339Z,1.17
2019-01-26T00:18:37.690Z,1.20
2019-01-26T00:21:04.058Z,1.10
2019-01-26T00:23:30.365Z,1.33
2019-01-26T00:25:56.718Z,1.10
2019-01-26T00:28:23.142Z,1.00
2019-01-26T00:30:49.581Z,1.20
2019-01-26T00:33:15.920Z,1.10
2019-01-26T00:35:42.245Z,1.17
2019-01-26T00:38:09.701Z,1.20
2019-01-26T00:40:36.046Z,1.10
2019-01-26T00:43:02.478Z,1.10
2019-01-26T00:45:28.803Z,0.87
2019-01-26T00:47:55.135Z,1.00
2019-01-26T00:50:21.527Z,1.33
2019-01-26T00:52:47.863Z,1.20
2019-01-26T00:55:14.197Z,1.10
2019-01-26T00:57:40.553Z,1.20
2019-01-26T01:00:06.910Z,1.20
2019-01-26T01:02:33.254Z,1.07
2019-01-26T01:04:59.635Z,1.10
2019-01-26T01:07:25.937Z,0.93
2019-01-26T01:09:52.268Z,1.00
2019-01-26T01:12:18.595Z,1.00
2019-01-26T01:14:44.933Z,1.10
2019-01-26T01:17:11.314Z,1.10
2019-01-26T01:19:37.641Z,1.00
2019-01-26T01:22:03.966Z,1.07
2019-01-26T01:24:30.315Z,1.00
2019-01-26T01:26:56.714Z,1.20
2019-01-26T01:29:23.042Z,1.10
2019-01-26T01:31:49.372Z,1.00
2019-01-26T01:34:15.654Z,1.07
2019-01-26T01:36:42.057Z,1.00
2019-01-26T01:39:08.390Z,1.10
2019-01-26T01:41:34.719Z,1.00
2019-01-26T01:44:01.073Z,1.00
2019-01-26T01:46:27.400Z,1.10
2019-01-26T01:48:53.802Z,1.10
2019-01-26T01:51:20.163Z,1.00
2019-01-26T01:53:46.488Z,1.10
2019-01-26T01:56:13.801Z,1.00
2019-01-26T01:58:40.126Z,1.20
2019-01-26T02:01:06.471Z,1.10
2019-01-26T02:03:32.812Z,1.00
2019-01-26T02:05:59.193Z,1.00
2019-01-26T02:08:25.524Z,1.10
2019-01-26T02:10:51.862Z,1.00
2019-01-26T02:13:18.217Z,0.90
2019-01-26T02:15:44.549Z,1.00
2019-01-26T02:18:10.888Z,1.03
2019-01-26T02:20:37.230Z,1.07
2019-01-26T02:23:03.593Z,1.10
2019-01-26T02:25:29.938Z,1.10
2019-01-26T02:27:56.315Z,1.10
2019-01-26T02:30:22.655Z,1.20
2019-01-26T02:32:49.036Z,1.03
2019-01-26T02:35:15.451Z,0.90
2019-01-26T02:37:41.792Z,1.17
2019-01-26T02:40:08.080Z,1.10
2019-01-26T02:42:34.445Z,1.10
2019-01-26T02:45:00.775Z,1.30
2019-01-26T02:47:27.127Z,1.00
2019-01-26T02:49:53.455Z,1.10
2019-01-26T02:52:19.851Z,1.00
2019-01-26T02:54:46.187Z,1.20
2019-01-26T02:57:12.562Z,0.90
2019-01-26T02:59:38.856Z,1.00
2019-01-26T03:02:05.228Z,1.13
2019-01-26T03:04:31.535Z,1.03
2019-01-26T03:06:57.937Z,1.10
2019-01-26T03:09:24.229Z,1.00
2019-01-26T03:11:50.561Z,1.10
2019-01-26T03:14:16.890Z,1.10
2019-01-26T03:16:43.220Z,1.00
2019-01-26T03:19:09.555Z,1.10
2019-01-26T03:21:35.884Z,1.20
2019-01-26T03:24:02.291Z,0.90
2019-01-26T03:26:28.623Z,1.10
2019-01-26T03:28:54.987Z,1.10
2019-01-26T03:31:21.360Z,1.20
2019-01-26T03:33:47.693Z,1.20
2019-01-26T03:36:14.044Z,1.13
2019-01-26T03:38:40.380Z,1.10
2019-01-26T03:41:06.708Z,1.10
2019-01-26T03:43:33.056Z,1.03
2019-01-26T03:45:59.376Z,1.10
2019-01-26T03:48:25.709Z,1.20
2019-01-26T03:50:52.049Z,1.00
2019-01-26T03:53:18.382Z,1.10
2019-01-26T03:55:44.740Z,1.10
2019-01-26T03:58:11.113Z,1.20
2019-01-26T04:00:37.612Z,1.13
2019-01-26T04:03:03.951Z,1.10
2019-01-26T04:05:30.298Z,1.00
2019-01-26T04:07:56.640Z,1.10
2019-01-26T04:10:22.970Z,1.10
2019-01-26T04:12:49.309Z,1.00
2019-01-26T04:15:15.640Z,1.10
2019-01-26T04:17:41.973Z,1.20
2019-01-26T04:20:08.360Z,1.10
2019-01-26T04:22:34.785Z,1.20
2019-01-26T04:25:01.223Z,1.17
2019-01-26T04:27:27.498Z,1.20
2019-01-26T04:29:53.822Z,1.37
2019-01-26T04:32:20.162Z,1.17
2019-01-26T04:34:46.489Z,1.00
2019-01-26T04:37:12.886Z,1.20
2019-01-26T04:39:39.205Z,1.00
2019-01-26T04:42:05.542Z,1.10
2019-01-26T04:44:31.880Z,1.20
2019-01-26T04:46:58.241Z,1.30
2019-01-26T04:49:24.566Z,1.10
2019-01-26T04:51:50.897Z,1.00
2019-01-26T04:54:17.230Z,1.33
2019-01-26T04:56:43.557Z,1.20
2019-01-26T04:59:09.939Z,1.20
2019-01-26T05:01:36.271Z,1.20
2019-01-26T05:04:02.660Z,1.13
2019-01-26T05:06:28.983Z,1.20
2019-01-26T05:08:55.349Z,1.03
2019-01-26T05:11:21.675Z,1.50
2019-01-26T05:13:48.046Z,1.10
2019-01-26T05:16:14.389Z,1.43
2019-01-26T05:18:40.773Z,1.20
2019-01-26T05:21:10.237Z,1.23
2019-01-26T05:23:36.648Z,1.20
2019-01-26T05:26:03.073Z,1.40
2019-01-26T05:28:29.408Z,1.27
2019-01-26T05:30:55.738Z,1.23
2019-01-26T05:33:25.365Z,1.20
2019-01-26T05:35:51.699Z,1.23
2019-01-26T05:38:18.208Z,1.30
2019-01-26T05:40:44.567Z,1.10
2019-01-26T05:43:10.892Z,1.23
2019-01-26T05:45:37.268Z,1.00
2019-01-26T05:48:03.601Z,1.20
2019-01-26T05:50:29.970Z,1.50
2019-01-26T05:52:56.369Z,1.20
2019-01-26T05:55:22.718Z,1.33
2019-01-26T05:57:49.167Z,1.30
2019-01-26T06:00:15.498Z,1.40
2019-01-26T06:02:41.863Z,1.30
2019-01-26T06:05:08.277Z,1.20
2019-01-26T06:07:34.617Z,1.30
2019-01-26T06:10:01.002Z,1.27
2019-01-26T06:12:27.349Z,1.30
2019-01-26T06:14:53.685Z,1.50
2019-01-26T06:17:20.073Z,1.20
2019-01-26T06:19:46.444Z,1.40
2019-01-26T06:22:12.777Z,1.40
2019-01-26T06:24:39.134Z,1.33
2019-01-26T06:27:05.524Z,1.20
2019-01-26T06:29:31.891Z,1.40
2019-01-26T06:31:58.191Z,1.30
2019-01-26T06:34:24.581Z,1.43
2019-01-26T06:36:50.908Z,1.50
2019-01-26T06:39:17.282Z,1.30
2019-01-26T06:41:43.624Z,1.60
2019-01-26T06:44:10.001Z,1.40
2019-01-26T06:46:36.371Z,1.50
2019-01-26T06:49:02.748Z,1.37
2019-01-26T06:51:29.110Z,1.40
2019-01-26T06:53:55.464Z,1.50
2019-01-26T06:56:21.873Z,1.40
2019-01-26T06:58:48.205Z,1.53
2019-01-26T07:01:14.533Z,1.60
2019-01-26T07:03:40.870Z,1.60
2019-01-26T07:06:07.283Z,1.57
2019-01-26T07:08:33.590Z,1.40
2019-01-26T07:10:59.927Z,1.60
2019-01-26T07:13:26.361Z,1.30
2019-01-26T07:15:52.701Z,1.43
2019-01-26T07:18:19.026Z,1.27
2019-01-26T07:20:45.454Z,1.43
2019-01-26T07:23:11.801Z,1.57
2019-01-26T07:25:38.191Z,1.50
2019-01-26T07:28:04.538Z,1.50
2019-01-26T07:30:30.865Z,1.70
2019-01-26T07:32:57.200Z,1.70
2019-01-26T07:35:23.540Z,1.40
2019-01-26T07:37:49.884Z,1.80
2019-01-26T07:40:16.270Z,1.50
2019-01-26T07:42:42.817Z,1.60
2019-01-26T07:45:09.762Z,1.70
2019-01-26T07:47:36.269Z,1.63
2019-01-26T07:50:02.633Z,1.43
2019-01-26T07:52:28.965Z,1.80
2019-01-26T07:54:55.321Z,2.00
2019-01-26T07:57:21.657Z,1.80
2019-01-26T07:59:48.000Z,1.70
2019-01-26T08:02:14.383Z,1.60
2019-01-26T08:04:40.720Z,1.80
2019-01-26T08:07:07.093Z,1.80
2019-01-26T08:09:33.479Z,1.60
2019-01-26T08:11:59.810Z,1.70
2019-01-26T08:14:26.142Z,1.50
2019-01-26T08:16:52.497Z,1.70
2019-01-26T08:19:18.841Z,1.57
2019-01-26T08:21:45.179Z,1.80
2019-01-26T08:24:11.567Z,1.80
2019-01-26T08:26:37.893Z,1.77
2019-01-26T08:29:04.275Z,1.70
2019-01-26T08:31:30.612Z,1.70
2019-01-26T08:33:57.039Z,1.60
2019-01-26T08:36:23.490Z,1.83
2019-01-26T08:38:49.817Z,2.10
2019-01-26T08:41:16.218Z,1.90
2019-01-26T08:43:42.546Z,1.80
2019-01-26T08:46:08.877Z,1.80
2019-01-26T08:48:35.246Z,1.80
2019-01-26T08:51:01.571Z,1.67
2019-01-26T08:53:27.905Z,1.70
2019-01-26T08:55:54.339Z,1.67
2019-01-26T08:58:20.672Z,1.73
2019-01-26T09:00:47.082Z,1.63
2019-01-26T09:03:13.361Z,1.73
2019-01-26T09:05:39.706Z,1.90
2019-01-26T09:08:06.051Z,1.90
2019-01-26T09:10:32.414Z,1.93
2019-01-26T09:12:58.754Z,1.77
2019-01-26T09:15:25.105Z,1.83
2019-01-26T09:17:51.430Z,1.73
2019-01-26T09:20:17.798Z,1.53
2019-01-26T09:22:44.133Z,1.73
2019-01-26T09:25:10.506Z,1.67
2019-01-26T09:27:36.876Z,1.90
2019-01-26T09:30:03.215Z,1.50
2019-01-26T09:32:29.630Z,1.90
2019-01-26T09:34:55.945Z,1.70
2019-01-26T09:37:22.276Z,1.90
2019-01-26T09:39:48.632Z,1.70
2019-01-26T09:42:15.001Z,1.80
2019-01-26T09:44:41.373Z,1.83
2019-01-26T09:47:07.707Z,1.70
2019-01-26T09:49:34.101Z,1.67
2019-01-26T09:52:00.454Z,1.70
2019-01-26T09:54:26.828Z,1.90
2019-01-26T09:56:53.215Z,1.87
2019-01-26T09:59:19.538Z,1.90
2019-01-26T10:01:45.876Z,1.67
2019-01-26T10:04:12.222Z,1.90
2019-01-26T10:06:38.602Z,1.93
2019-01-26T10:09:04.961Z,1.60
2019-01-26T10:11:31.396Z,2.00
2019-01-26T10:13:57.711Z,1.90
2019-01-26T10:16:24.103Z,1.70
2019-01-26T10:18:53.783Z,2.00
2019-01-26T10:21:16.893Z,1.87
2019-01-26T10:23:43.241Z,2.10
2019-01-26T10:26:09.686Z,1.53
2019-01-26T10:28:36.020Z,2.10
2019-01-26T10:31:02.433Z,2.17
2019-01-26T10:33:30.430Z,1.70
2019-01-26T10:35:56.843Z,2.00
2019-01-26T10:38:23.239Z,2.00
2019-01-26T10:40:49.525Z,2.30
2019-01-26T10:43:15.858Z,1.90
2019-01-26T10:45:42.194Z,2.00
2019-01-26T10:48:08.535Z,2.17
2019-01-26T10:50:34.967Z,2.07
2019-01-26T10:53:01.355Z,1.80
2019-01-26T10:55:27.675Z,1.87
2019-01-26T10:57:54.032Z,1.97
2019-01-26T11:00:20.383Z,1.80
2019-01-26T11:02:46.719Z,2.00
2019-01-26T11:05:13.079Z,2.00
2019-01-26T11:07:39.418Z,1.67
2019-01-26T11:10:05.752Z,1.80
2019-01-26T11:12:32.124Z,2.20
2019-01-26T11:14:58.435Z,2.20
2019-01-26T11:17:24.797Z,2.00
2019-01-26T11:19:51.127Z,1.80
2019-01-26T11:22:17.490Z,1.80
2019-01-26T11:24:43.810Z,2.00
2019-01-26T11:27:10.133Z,1.90
2019-01-26T11:29:36.518Z,1.77
2019-01-26T11:32:02.918Z,2.37
2019-01-26T11:34:29.197Z,1.90
2019-01-26T11:36:55.606Z,1.90
2019-01-26T11:39:22.001Z,2.30
2019-01-26T11:41:48.355Z,1.87
2019-01-26T11:44:14.882Z,1.90
2019-01-26T11:46:41.166Z,2.00
2019-01-26T11:49:07.543Z,2.00
2019-01-26T11:51:33.884Z,1.67
2019-01-26T11:54:00.226Z,1.97
2019-01-26T11:56:26.684Z,1.90
2019-01-26T11:58:53.017Z,1.80
2019-01-26T12:01:19.348Z,1.73
2019-01-26T12:03:45.672Z,2.07
2019-01-26T12:06:12.147Z,2.00
2019-01-26T12:08:38.453Z,2.13
2019-01-26T12:11:04.864Z,2.30
2019-01-26T12:13:31.187Z,2.00
2019-01-26T12:15:57.529Z,2.10
2019-01-26T12:18:23.868Z,2.10
2019-01-26T12:20:50.191Z,2.00
2019-01-26T12:23:16.569Z,2.03
2019-01-26T12:25:42.857Z,2.17
2019-01-26T12:28:09.237Z,1.97
2019-01-26T12:30:35.557Z,2.07
2019-01-26T12:33:01.893Z,2.20
2019-01-26T12:35:28.265Z,2.03
2019-01-26T12:37:54.646Z,2.40
2019-01-26T12:40:21.031Z,2.00
2019-01-26T12:42:47.373Z,2.10
2019-01-26T12:45:13.742Z,2.30
2019-01-26T12:47:40.106Z,1.93
2019-01-26T12:50:06.446Z,1.90
2019-01-26T12:52:32.819Z,1.90
2019-01-26T12:54:59.236Z,1.83
2019-01-26T12:57:25.590Z,1.80
2019-01-26T12:59:51.912Z,2.10
2019-01-26T13:02:18.242Z,2.37
2019-01-26T13:04:44.573Z,2.13
2019-01-26T13:07:10.955Z,2.20
2019-01-26T13:09:37.294Z,1.73
2019-01-26T13:12:03.667Z,2.03
2019-01-26T13:14:30.012Z,2.03
2019-01-26T13:16:56.561Z,1.93
2019-01-26T13:19:22.961Z,2.50
2019-01-26T13:21:49.267Z,2.30
2019-01-26T13:24:15.648Z,1.90
2019-01-26T13:26:42.026Z,2.20
2019-01-26T13:29:08.380Z,2.20
2019-01-26T13:31:34.846Z,2.17
2019-01-26T13:34:03.667Z,2.20
2019-01-26T13:36:27.791Z,2.10
2019-01-26T13:38:53.927Z,2.10
2019-01-26T13:41:20.323Z,1.67
2019-01-26T13:43:46.708Z,2.13
2019-01-26T13:46:13.059Z,2.20
2019-01-26T13:48:39.345Z,2.00
2019-01-26T13:51:05.730Z,2.07
2019-01-26T13:53:32.102Z,2.37
2019-01-26T13:55:58.474Z,1.97
2019-01-26T13:58:24.834Z,1.97
2019-01-26T14:00:51.155Z,2.40
2019-01-26T14:03:17.507Z,2.20
2019-01-26T14:05:43.850Z,2.40
2019-01-26T14:08:10.224Z,2.20
2019-01-26T14:10:36.572Z,2.20
2019-01-26T14:13:03.031Z,2.27
2019-01-26T14:15:29.411Z,2.30
2019-01-26T14:17:55.792Z,2.30
2019-01-26T14:20:22.145Z,2.00
2019-01-26T14:22:48.480Z,2.30
2019-01-26T14:25:14.811Z,2.47
2019-01-26T14:27:41.321Z,2.40
2019-01-26T14:30:07.677Z,2.20
2019-01-26T14:32:34.025Z,2.10
2019-01-26T14:35:00.425Z,2.20
2019-01-26T14:37:26.809Z,2.07
2019-01-26T14:39:53.148Z,2.40
2019-01-26T14:42:19.481Z,2.37
2019-01-26T14:44:45.937Z,2.20
2019-01-26T14:47:12.393Z,2.20
2019-01-26T14:49:38.820Z,2.20
2019-01-26T14:52:05.111Z,2.53
2019-01-26T14:54:31.496Z,2.10
2019-01-26T14:56:57.874Z,2.33
2019-01-26T14:59:24.201Z,2.17
2019-01-26T15:01:50.661Z,2.30
2019-01-26T15:04:16.997Z,2.10
2019-01-26T15:06:43.379Z,2.47
2019-01-26T15:09:09.728Z,2.50
2019-01-26T15:11:36.137Z,2.40
2019-01-26T15:14:02.466Z,2.33
2019-01-26T15:16:28.803Z,2.20
2019-01-26T15:18:55.129Z,2.17
2019-01-26T15:21:21.466Z,2.10
2019-01-26T15:23:47.798Z,2.37
2019-01-26T15:26:14.223Z,2.33
2019-01-26T15:28:43.093Z,2.90
2019-01-26T15:31:06.935Z,2.30
2019-01-26T15:33:33.260Z,2.47
2019-01-26T15:35:59.595Z,2.40
2019-01-26T15:38:25.980Z,2.60
2019-01-26T15:40:52.299Z,2.77
2019-01-26T15:43:18.665Z,2.50
2019-01-26T15:45:44.969Z,2.67
2019-01-26T15:48:11.331Z,2.53
2019-01-26T15:50:37.712Z,2.30
2019-01-26T15:53:04.035Z,2.63
2019-01-26T15:55:30.371Z,2.60
2019-01-26T15:57:56.716Z,2.67
2019-01-26T16:00:23.081Z,2.73
2019-01-26T16:02:49.407Z,2.70
2019-01-26T16:05:15.730Z,2.33
2019-01-26T16:07:42.081Z,2.47
2019-01-26T16:10:08.409Z,2.67
2019-01-26T16:12:34.884Z,2.63
2019-01-26T16:15:01.291Z,2.53
2019-01-26T16:17:27.574Z,2.47
2019-01-26T16:19:53.909Z,2.57
2019-01-26T16:22:20.236Z,2.73
2019-01-26T16:24:46.622Z,2.33
2019-01-26T16:27:12.950Z,2.70
2019-01-26T16:29:39.341Z,2.70
2019-01-26T16:32:05.688Z,2.60
2019-01-26T16:34:32.068Z,2.70
2019-01-26T16:36:58.447Z,2.60
2019-01-26T16:39:24.774Z,2.90
2019-01-26T16:41:51.114Z,2.43
2019-01-26T16:44:17.467Z,2.70
2019-01-26T16:46:43.835Z,2.90
2019-01-26T16:49:10.226Z,2.67
2019-01-26T16:51:36.557Z,2.30
2019-01-26T16:54:05.119Z,2.53
2019-01-26T16:56:32.908Z,2.37
2019-01-26T16:58:57.783Z,2.47
2019-01-26T17:01:24.108Z,2.70
2019-01-26T17:03:50.457Z,2.57
2019-01-26T17:06:16.790Z,2.73
2019-01-26T17:08:43.214Z,2.20
2019-01-26T17:11:09.488Z,2.73
2019-01-26T17:13:36.054Z,2.50
2019-01-26T17:16:02.405Z,2.87
2019-01-26T17:18:28.740Z,2.63
2019-01-26T17:20:55.111Z,2.47
2019-01-26T17:23:21.446Z,2.73
2019-01-26T17:25:47.831Z,2.50
2019-01-26T17:28:14.165Z,2.70
2019-01-26T17:30:40.526Z,2.67
2019-01-26T17:33:07.560Z,2.50
2019-01-26T17:35:33.196Z,2.70
2019-01-26T17:37:59.577Z,2.57
2019-01-26T17:40:25.952Z,2.50
2019-01-26T17:42:52.233Z,3.20
2019-01-26T17:45:18.572Z,2.87
2019-01-26T17:47:44.917Z,2.60
2019-01-26T17:50:11.254Z,2.70
2019-01-26T17:52:40.508Z,2.40
2019-01-26T17:55:04.035Z,2.90
2019-01-26T17:57:30.401Z,3.10
2019-01-26T17:59:56.731Z,2.93
2019-01-26T18:02:23.072Z,2.77
2019-01-26T18:04:49.413Z,2.80
2019-01-26T18:07:15.783Z,2.80
2019-01-26T18:09:42.165Z,2.90
2019-01-26T18:12:08.497Z,2.77
2019-01-26T18:14:34.837Z,2.70
2019-01-26T18:17:01.190Z,2.40
2019-01-26T18:19:27.556Z,2.80
2019-01-26T18:21:53.853Z,2.70
2019-01-26T18:24:20.194Z,2.63
2019-01-26T18:26:46.535Z,2.70
2019-01-26T18:29:12.968Z,2.73
2019-01-26T18:31:39.369Z,3.10
2019-01-26T18:34:05.703Z,2.80
2019-01-26T18:36:32.059Z,3.20
2019-01-26T18:38:58.405Z,2.80
2019-01-26T18:41:24.795Z,2.40
2019-01-26T18:43:51.130Z,2.83
2019-01-26T18:46:17.526Z,2.60
2019-01-26T18:48:43.852Z,2.80
2019-01-26T18:51:10.224Z,2.83
2019-01-26T18:53:36.576Z,2.97
2019-01-26T18:56:02.994Z,2.87
2019-01-26T18:58:29.327Z,3.17
2019-01-26T19:00:55.692Z,2.97
2019-01-26T19:03:21.999Z,2.73
2019-01-26T19:05:48.378Z,3.03
2019-01-26T19:08:14.747Z,3.00
2019-01-26T19:10:41.078Z,2.90
2019-01-26T19:13:07.460Z,3.00
2019-01-26T19:15:33.792Z,3.07
2019-01-26T19:18:00.147Z,3.20
2019-01-26T19:20:26.537Z,3.40
2019-01-26T19:22:52.881Z,2.63
2019-01-26T19:25:19.211Z,2.80
2019-01-26T19:27:45.566Z,2.97
2019-01-26T19:30:11.902Z,3.03
2019-01-26T19:32:38.250Z,3.10
2019-01-26T19:35:04.585Z,3.20
2019-01-26T19:37:30.990Z,3.33
2019-01-26T19:39:57.342Z,3.13
2019-01-26T19:45:08.985Z,2.90
2019-01-26T19:47:35.327Z,3.07
2019-01-26T19:50:01.715Z,3.07
2019-01-26T19:52:28.239Z,3.30
2019-01-26T19:54:54.970Z,2.90
2019-01-26T19:57:21.411Z,3.00
2019-01-26T19:59:47.757Z,2.80
2019-01-26T20:02:14.187Z,3.23
2019-01-26T20:04:40.519Z,3.20
2019-01-26T20:07:06.909Z,2.87
2019-01-26T20:09:33.659Z,3.10
2019-01-26T20:12:00.116Z,2.80
2019-01-26T20:14:26.652Z,2.73
2019-01-26T20:16:52.996Z,3.00
2019-01-26T20:19:19.322Z,2.80
2019-01-26T20:21:45.746Z,2.87
2019-01-26T20:24:12.180Z,2.80
2019-01-26T20:26:38.516Z,3.43
2019-01-26T20:29:04.862Z,3.10
2019-01-26T20:31:31.371Z,2.80
2019-01-26T20:33:57.711Z,2.80
2019-01-26T20:36:24.037Z,3.07
2019-01-26T20:38:50.432Z,2.77
2019-01-26T20:41:16.761Z,2.87
2019-01-26T20:43:43.134Z,2.93
2019-01-26T20:46:09.604Z,2.83
2019-01-26T20:48:35.964Z,2.90
2019-01-26T20:51:02.289Z,2.93
2019-01-26T20:53:28.744Z,2.80
2019-01-26T20:55:55.083Z,2.90
2019-01-26T20:58:21.450Z,2.63
2019-01-26T21:00:47.819Z,2.70
2019-01-26T21:03:14.215Z,2.60
2019-01-26T21:05:40.547Z,2.77
2019-01-26T21:08:06.951Z,3.20
2019-01-26T21:10:33.351Z,2.80
2019-01-26T21:12:59.899Z,2.47
2019-01-26T21:15:26.145Z,3.13
2019-01-26T21:17:52.526Z,2.50
2019-01-26T21:20:18.886Z,3.03
2019-01-26T21:22:45.335Z,2.97
2019-01-26T21:25:11.684Z,2.90
2019-01-26T21:27:38.082Z,3.03
2019-01-26T21:30:04.436Z,2.87
2019-01-26T21:32:30.848Z,3.03
2019-01-26T21:34:57.183Z,2.57
2019-01-26T21:37:23.444Z,2.93
2019-01-26T21:39:49.771Z,2.97
2019-01-26T21:42:16.194Z,2.70
2019-01-26T21:44:42.589Z,3.10
2019-01-26T21:47:08.986Z,3.13
2019-01-26T21:49:35.317Z,2.73
2019-01-26T21:52:01.628Z,2.90
2019-01-26T21:54:28.129Z,3.40
2019-01-26T21:56:57.015Z,2.60
2019-01-26T21:59:24.274Z,3.10
2019-01-26T22:01:49.661Z,2.90
2019-01-26T22:04:16.011Z,2.93
2019-01-26T22:06:42.398Z,2.70
2019-01-26T22:09:08.706Z,3.20
2019-01-26T22:11:35.111Z,2.33
2019-01-26T22:14:01.476Z,3.00
2019-01-26T22:16:27.802Z,3.23
2019-01-26T22:18:54.172Z,2.47
2019-01-26T22:21:20.553Z,3.53
2019-01-26T22:23:46.959Z,2.50
2019-01-26T22:26:13.250Z,3.10
2019-01-26T22:28:39.616Z,2.60
2019-01-26T22:31:06.082Z,3.07
2019-01-26T22:33:32.420Z,2.80
2019-01-26T22:35:58.801Z,2.73
2019-01-26T22:38:25.140Z,2.50
2019-01-26T22:40:51.471Z,2.90
2019-01-26T22:43:17.835Z,2.90
2019-01-26T22:45:44.214Z,2.73
2019-01-26T22:48:10.676Z,3.07
2019-01-26T22:50:37.006Z,2.83
2019-01-26T22:53:03.350Z,3.03
2019-01-26T22:55:30.583Z,2.73
2019-01-26T22:57:56.019Z,2.80
2019-01-26T23:00:22.431Z,2.90
2019-01-26T23:02:48.776Z,2.77
2019-01-26T23:05:15.157Z,2.90
2019-01-26T23:07:41.780Z,2.80
2019-01-26T23:10:07.812Z,2.50
2019-01-26T23:12:34.171Z,2.70
2019-01-26T23:15:00.654Z,3.00
2019-01-26T23:17:27.053Z,2.70
2019-01-26T23:19:53.405Z,2.63
2019-01-26T23:22:19.782Z,2.70
2019-01-26T23:24:46.126Z,2.60
2019-01-26T23:27:12.589Z,2.93
2019-01-26T23:29:38.930Z,2.50
2019-01-26T23:32:05.307Z,2.60
2019-01-26T23:34:31.622Z,2.60
2019-01-26T23:36:57.965Z,2.90
2019-01-26T23:39:24.295Z,2.30
2019-01-26T23:41:50.640Z,2.80
2019-01-26T23:44:17.046Z,2.90
2019-01-26T23:46:43.362Z,2.60
2019-01-26T23:49:09.696Z,2.70
2019-01-26T23:51:36.099Z,2.60
2019-01-26T23:54:02.452Z,2.67
2019-01-26T23:56:28.774Z,2.73
2019-01-26T23:58:55.104Z,3.00
